sensor_id;sensor_type;location;lat;lon;timestamp;temperature;humidity
5980;DHT22;3016;50.308;8.258;2023-05-25T00:00:12;5.90;1.00
5980;DHT22;3016;50.308;8.258;2023-05-25T00:03:13;5.90;1.00
5980;DHT22;3016;50.308;8.258;2023-05-25T00:06:14;5.80;1.00
5980;DHT22;3016;50.308;8.258;2023-05-25T00:09:14;5.80;1.00
5980;DHT22;3016;50.308;8.258;2023-05-25T00:12:15;5.80;1.00
5980;DHT22;3016;50.308;8.258;2023-05-25T00:15:16;5.80;1.00
5980;DHT22;3016;50.308;8.258;2023-05-25T00:18:17;5.80;1.00
5980;DHT22;3016;50.308;8.258;2023-05-25T00:21:17;5.70;1.00
5980;DHT22;3016;50.308;8.258;2023-05-25T00:24:19;5.70;1.00
5980;DHT22;3016;50.308;8.258;2023-05-25T00:27:20;5.60;1.00
5980;DHT22;3016;50.308;8.258;2023-05-25T00:30:21;5.70;1.00
5980;DHT22;3016;50.308;8.258;2023-05-25T00:33:21;5.70;1.00
5980;DHT22;3016;50.308;8.258;2023-05-25T00:36:23;5.80;1.00
5980;DHT22;3016;50.308;8.258;2023-05-25T00:39:24;5.80;1.00
5980;DHT22;3016;50.308;8.258;2023-05-25T00:42:25;5.80;1.00
5980;DHT22;3016;50.308;8.258;2023-05-25T00:45:27;5.80;1.00
5980;DHT22;3016;50.308;8.258;2023-05-25T00:48:28;5.80;1.00
5980;DHT22;3016;50.308;8.258;2023-05-25T00:51:29;5.70;1.00
5980;DHT22;3016;50.308;8.258;2023-05-25T00:54:33;5.70;1.00
5980;DHT22;3016;50.308;8.258;2023-05-25T00:57:36;5.70;1.00
5980;DHT22;3016;50.308;8.258;2023-05-25T01:00:40;5.70;1.00
5980;DHT22;3016;50.308;8.258;2023-05-25T01:03:45;5.60;1.00
5980;DHT22;3016;50.308;8.258;2023-05-25T01:06:53;5.60;1.00
5980;DHT22;3016;50.308;8.258;2023-05-25T01:09:59;5.50;1.00
5980;DHT22;3016;50.308;8.258;2023-05-25T01:13:01;5.50;1.00
5980;DHT22;3016;50.308;8.258;2023-05-25T01:16:05;5.40;1.00
5980;DHT22;3016;50.308;8.258;2023-05-25T01:19:06;5.40;1.00
5980;DHT22;3016;50.308;8.258;2023-05-25T01:25:44;5.40;1.00
5980;DHT22;3016;50.308;8.258;2023-05-25T01:28:51;5.40;1.00
5980;DHT22;3016;50.308;8.258;2023-05-25T01:31:52;5.40;1.00
5980;DHT22;3016;50.308;8.258;2023-05-25T01:34:57;5.30;1.00
5980;DHT22;3016;50.308;8.258;2023-05-25T01:37:58;5.20;1.00
5980;DHT22;3016;50.308;8.258;2023-05-25T01:40:59;5.20;1.00
5980;DHT22;3016;50.308;8.258;2023-05-25T01:44:00;5.20;1.00
5980;DHT22;3016;50.308;8.258;2023-05-25T01:47:19;5.20;1.00
5980;DHT22;3016;50.308;8.258;2023-05-25T01:50:33;5.20;1.00
5980;DHT22;3016;50.308;8.258;2023-05-25T01:53:42;5.20;1.00
5980;DHT22;3016;50.308;8.258;2023-05-25T01:56:47;5.20;1.00
5980;DHT22;3016;50.308;8.258;2023-05-25T01:59:50;5.20;1.00
5980;DHT22;3016;50.308;8.258;2023-05-25T02:02:52;5.20;1.00
5980;DHT22;3016;50.308;8.258;2023-05-25T02:05:54;5.10;1.00
5980;DHT22;3016;50.308;8.258;2023-05-25T02:08:57;5.10;1.00
5980;DHT22;3016;50.308;8.258;2023-05-25T02:11:57;5.00;1.00
5980;DHT22;3016;50.308;8.258;2023-05-25T02:14:58;5.10;1.00
5980;DHT22;3016;50.308;8.258;2023-05-25T02:17:59;5.10;1.00
5980;DHT22;3016;50.308;8.258;2023-05-25T02:21:00;5.10;1.00
5980;DHT22;3016;50.308;8.258;2023-05-25T02:24:00;5.00;1.00
5980;DHT22;3016;50.308;8.258;2023-05-25T02:27:01;5.10;1.00
5980;DHT22;3016;50.308;8.258;2023-05-25T02:30:03;5.00;1.00
5980;DHT22;3016;50.308;8.258;2023-05-25T02:33:04;5.00;1.00
5980;DHT22;3016;50.308;8.258;2023-05-25T02:36:04;5.00;1.00
5980;DHT22;3016;50.308;8.258;2023-05-25T02:39:05;5.00;1.00
5980;DHT22;3016;50.308;8.258;2023-05-25T02:42:06;5.00;1.00
5980;DHT22;3016;50.308;8.258;2023-05-25T02:45:08;4.90;1.00
5980;DHT22;3016;50.308;8.258;2023-05-25T02:48:12;4.90;1.00
5980;DHT22;3016;50.308;8.258;2023-05-25T02:51:13;4.80;1.00
5980;DHT22;3016;50.308;8.258;2023-05-25T02:54:14;4.80;1.00
5980;DHT22;3016;50.308;8.258;2023-05-25T02:57:14;4.80;1.00
5980;DHT22;3016;50.308;8.258;2023-05-25T03:00:15;4.80;1.00
5980;DHT22;3016;50.308;8.258;2023-05-25T03:03:16;4.80;1.00
5980;DHT22;3016;50.308;8.258;2023-05-25T03:06:17;4.80;1.00
5980;DHT22;3016;50.308;8.258;2023-05-25T03:09:18;4.80;1.00
5980;DHT22;3016;50.308;8.258;2023-05-25T03:12:18;4.80;1.00
5980;DHT22;3016;50.308;8.258;2023-05-25T03:15:19;4.80;1.00
5980;DHT22;3016;50.308;8.258;2023-05-25T03:18:20;4.80;1.00
5980;DHT22;3016;50.308;8.258;2023-05-25T03:21:20;4.70;1.00
5980;DHT22;3016;50.308;8.258;2023-05-25T03:24:21;4.70;1.00
5980;DHT22;3016;50.308;8.258;2023-05-25T03:27:22;4.70;1.00
5980;DHT22;3016;50.308;8.258;2023-05-25T03:30:23;4.70;1.00
5980;DHT22;3016;50.308;8.258;2023-05-25T03:33:23;4.70;1.00
5980;DHT22;3016;50.308;8.258;2023-05-25T03:36:24;4.70;1.00
5980;DHT22;3016;50.308;8.258;2023-05-25T03:39:30;4.60;1.00
5980;DHT22;3016;50.308;8.258;2023-05-25T03:42:30;4.60;1.00
5980;DHT22;3016;50.308;8.258;2023-05-25T03:45:31;4.60;1.00
5980;DHT22;3016;50.308;8.258;2023-05-25T03:48:32;4.60;1.00
5980;DHT22;3016;50.308;8.258;2023-05-25T03:51:32;4.60;1.00
5980;DHT22;3016;50.308;8.258;2023-05-25T03:54:33;4.60;1.00
5980;DHT22;3016;50.308;8.258;2023-05-25T03:57:34;4.70;1.00
5980;DHT22;3016;50.308;8.258;2023-05-25T04:00:35;4.70;1.00
5980;DHT22;3016;50.308;8.258;2023-05-25T04:03:36;4.70;1.00
5980;DHT22;3016;50.308;8.258;2023-05-25T04:06:37;4.80;1.00
5980;DHT22;3016;50.308;8.258;2023-05-25T04:09:38;4.70;1.00
5980;DHT22;3016;50.308;8.258;2023-05-25T04:12:39;4.70;1.00
5980;DHT22;3016;50.308;8.258;2023-05-25T04:15:39;4.70;1.00
5980;DHT22;3016;50.308;8.258;2023-05-25T04:18:40;4.70;1.00
5980;DHT22;3016;50.308;8.258;2023-05-25T04:21:41;4.70;1.00
5980;DHT22;3016;50.308;8.258;2023-05-25T04:24:41;4.70;1.00
5980;DHT22;3016;50.308;8.258;2023-05-25T04:27:42;4.80;1.00
5980;DHT22;3016;50.308;8.258;2023-05-25T04:30:45;4.80;1.00
5980;DHT22;3016;50.308;8.258;2023-05-25T04:33:47;4.90;1.00
5980;DHT22;3016;50.308;8.258;2023-05-25T04:36:48;4.90;1.00
5980;DHT22;3016;50.308;8.258;2023-05-25T04:39:49;5.00;1.00
5980;DHT22;3016;50.308;8.258;2023-05-25T04:42:50;5.10;1.00
5980;DHT22;3016;50.308;8.258;2023-05-25T04:45:53;5.20;2.60
5980;DHT22;3016;50.308;8.258;2023-05-25T04:48:53;5.40;4.20
5980;DHT22;3016;50.308;8.258;2023-05-25T04:51:54;5.50;7.30
5980;DHT22;3016;50.308;8.258;2023-05-25T04:54:55;5.70;6.50
5980;DHT22;3016;50.308;8.258;2023-05-25T04:57:55;5.80;6.70
5980;DHT22;3016;50.308;8.258;2023-05-25T05:00:56;6.00;7.90
5980;DHT22;3016;50.308;8.258;2023-05-25T05:03:57;6.20;7.80
5980;DHT22;3016;50.308;8.258;2023-05-25T05:06:57;6.50;10.10
5980;DHT22;3016;50.308;8.258;2023-05-25T05:09:59;6.70;9.40
5980;DHT22;3016;50.308;8.258;2023-05-25T05:13:00;6.90;9.00
5980;DHT22;3016;50.308;8.258;2023-05-25T05:22:21;7.80;11.20
5980;DHT22;3016;50.308;8.258;2023-05-25T05:25:22;8.10;9.70
5980;DHT22;3016;50.308;8.258;2023-05-25T05:28:22;8.30;7.30
5980;DHT22;3016;50.308;8.258;2023-05-25T05:31:26;8.50;4.20
5980;DHT22;3016;50.308;8.258;2023-05-25T05:34:28;8.60;1.00
5980;DHT22;3016;50.308;8.258;2023-05-25T05:37:29;8.80;1.00
5980;DHT22;3016;50.308;8.258;2023-05-25T05:40:30;9.00;1.00
5980;DHT22;3016;50.308;8.258;2023-05-25T05:43:31;9.20;1.00
5980;DHT22;3016;50.308;8.258;2023-05-25T05:46:31;9.20;1.00
5980;DHT22;3016;50.308;8.258;2023-05-25T05:49:32;9.20;1.00
5980;DHT22;3016;50.308;8.258;2023-05-25T05:52:33;9.20;1.00
5980;DHT22;3016;50.308;8.258;2023-05-25T05:55:34;9.20;1.00
5980;DHT22;3016;50.308;8.258;2023-05-25T05:58:35;9.20;1.00
5980;DHT22;3016;50.308;8.258;2023-05-25T06:01:36;9.10;1.00
5980;DHT22;3016;50.308;8.258;2023-05-25T06:04:37;9.10;1.00
5980;DHT22;3016;50.308;8.258;2023-05-25T06:07:38;9.10;1.00
5980;DHT22;3016;50.308;8.258;2023-05-25T06:10:39;9.20;1.00
5980;DHT22;3016;50.308;8.258;2023-05-25T06:13:41;9.30;1.00
5980;DHT22;3016;50.308;8.258;2023-05-25T06:16:42;9.40;1.00
5980;DHT22;3016;50.308;8.258;2023-05-25T06:19:46;9.60;5.60
5980;DHT22;3016;50.308;8.258;2023-05-25T06:22:50;9.70;1.00
5980;DHT22;3016;50.308;8.258;2023-05-25T06:25:51;10.00;1.00
5980;DHT22;3016;50.308;8.258;2023-05-25T06:28:55;10.20;1.00
5980;DHT22;3016;50.308;8.258;2023-05-25T06:31:56;10.30;1.00
5980;DHT22;3016;50.308;8.258;2023-05-25T06:34:57;10.60;1.00
5980;DHT22;3016;50.308;8.258;2023-05-25T06:37:58;10.80;1.00
5980;DHT22;3016;50.308;8.258;2023-05-25T06:40:58;11.30;1.00
5980;DHT22;3016;50.308;8.258;2023-05-25T06:44:18;11.80;1.00
5980;DHT22;3016;50.308;8.258;2023-05-25T06:47:19;12.30;1.00
5980;DHT22;3016;50.308;8.258;2023-05-25T06:50:19;12.60;1.00
5980;DHT22;3016;50.308;8.258;2023-05-25T06:53:20;12.90;1.00
5980;DHT22;3016;50.308;8.258;2023-05-25T06:56:21;13.00;1.00
5980;DHT22;3016;50.308;8.258;2023-05-25T06:59:22;13.20;1.00
5980;DHT22;3016;50.308;8.258;2023-05-25T07:02:22;13.60;1.00
5980;DHT22;3016;50.308;8.258;2023-05-25T07:05:23;13.60;1.00
5980;DHT22;3016;50.308;8.258;2023-05-25T07:08:24;13.40;1.00
5980;DHT22;3016;50.308;8.258;2023-05-25T07:11:25;13.50;1.00
5980;DHT22;3016;50.308;8.258;2023-05-25T07:14:25;13.70;1.00
5980;DHT22;3016;50.308;8.258;2023-05-25T07:17:26;13.60;1.00
5980;DHT22;3016;50.308;8.258;2023-05-25T07:20:27;14.00;1.00
5980;DHT22;3016;50.308;8.258;2023-05-25T07:23:29;14.00;1.00
5980;DHT22;3016;50.308;8.258;2023-05-25T07:26:30;13.80;1.00
5980;DHT22;3016;50.308;8.258;2023-05-25T07:29:31;13.60;1.00
5980;DHT22;3016;50.308;8.258;2023-05-25T07:32:32;13.50;1.00
5980;DHT22;3016;50.308;8.258;2023-05-25T07:35:33;13.50;1.00
5980;DHT22;3016;50.308;8.258;2023-05-25T07:38:34;13.60;1.00
5980;DHT22;3016;50.308;8.258;2023-05-25T07:41:36;13.80;1.00
5980;DHT22;3016;50.308;8.258;2023-05-25T07:44:43;13.80;1.00
5980;DHT22;3016;50.308;8.258;2023-05-25T07:47:43;13.50;1.00
5980;DHT22;3016;50.308;8.258;2023-05-25T07:50:45;13.90;1.00
5980;DHT22;3016;50.308;8.258;2023-05-25T07:53:46;14.60;1.00
5980;DHT22;3016;50.308;8.258;2023-05-25T07:56:46;15.20;1.00
5980;DHT22;3016;50.308;8.258;2023-05-25T07:59:47;15.40;1.00
5980;DHT22;3016;50.308;8.258;2023-05-25T08:02:48;15.40;1.00
5980;DHT22;3016;50.308;8.258;2023-05-25T08:05:53;15.80;1.00
5980;DHT22;3016;50.308;8.258;2023-05-25T08:08:54;15.70;1.00
5980;DHT22;3016;50.308;8.258;2023-05-25T08:11:56;15.60;1.00
5980;DHT22;3016;50.308;8.258;2023-05-25T08:14:56;15.80;1.00
5980;DHT22;3016;50.308;8.258;2023-05-25T08:17:57;16.20;1.00
5980;DHT22;3016;50.308;8.258;2023-05-25T08:20:58;16.80;1.00
5980;DHT22;3016;50.308;8.258;2023-05-25T08:23:59;17.10;1.00
5980;DHT22;3016;50.308;8.258;2023-05-25T08:27:07;16.80;1.00
5980;DHT22;3016;50.308;8.258;2023-05-25T08:30:08;17.10;1.00
5980;DHT22;3016;50.308;8.258;2023-05-25T08:33:09;17.10;1.00
5980;DHT22;3016;50.308;8.258;2023-05-25T08:36:10;16.70;1.00
5980;DHT22;3016;50.308;8.258;2023-05-25T08:39:10;16.80;1.00
5980;DHT22;3016;50.308;8.258;2023-05-25T08:42:11;17.00;1.00
5980;DHT22;3016;50.308;8.258;2023-05-25T08:45:12;17.20;1.00
5980;DHT22;3016;50.308;8.258;2023-05-25T08:48:14;17.10;1.00
5980;DHT22;3016;50.308;8.258;2023-05-25T08:51:18;17.20;1.00
5980;DHT22;3016;50.308;8.258;2023-05-25T08:54:37;17.70;1.00
5980;DHT22;3016;50.308;8.258;2023-05-25T08:58:01;18.20;1.00
5980;DHT22;3016;50.308;8.258;2023-05-25T09:01:11;17.80;1.00
5980;DHT22;3016;50.308;8.258;2023-05-25T09:04:21;17.60;1.00
5980;DHT22;3016;50.308;8.258;2023-05-25T09:07:32;18.20;1.00
5980;DHT22;3016;50.308;8.258;2023-05-25T09:10:41;18.20;1.00
5980;DHT22;3016;50.308;8.258;2023-05-25T09:13:46;18.30;1.00
5980;DHT22;3016;50.308;8.258;2023-05-25T09:16:48;18.30;1.00
5980;DHT22;3016;50.308;8.258;2023-05-25T09:19:50;18.10;1.00
5980;DHT22;3016;50.308;8.258;2023-05-25T09:22:52;17.90;1.00
5980;DHT22;3016;50.308;8.258;2023-05-25T09:29:18;18.20;1.00
5980;DHT22;3016;50.308;8.258;2023-05-25T09:32:19;18.40;1.00
5980;DHT22;3016;50.308;8.258;2023-05-25T09:35:20;18.40;1.00
5980;DHT22;3016;50.308;8.258;2023-05-25T09:38:22;18.00;1.00
5980;DHT22;3016;50.308;8.258;2023-05-25T09:41:23;18.10;1.00
5980;DHT22;3016;50.308;8.258;2023-05-25T09:44:28;18.00;1.00
5980;DHT22;3016;50.308;8.258;2023-05-25T09:47:30;18.10;1.00
5980;DHT22;3016;50.308;8.258;2023-05-25T09:50:31;17.70;1.00
5980;DHT22;3016;50.308;8.258;2023-05-25T09:53:32;17.70;1.00
5980;DHT22;3016;50.308;8.258;2023-05-25T09:56:32;17.60;1.00
5980;DHT22;3016;50.308;8.258;2023-05-25T09:59:33;17.70;1.00
5980;DHT22;3016;50.308;8.258;2023-05-25T10:02:35;18.10;1.00
5980;DHT22;3016;50.308;8.258;2023-05-25T10:05:35;17.80;1.00
5980;DHT22;3016;50.308;8.258;2023-05-25T10:08:36;17.80;1.00
5980;DHT22;3016;50.308;8.258;2023-05-25T10:11:38;17.90;1.00
5980;DHT22;3016;50.308;8.258;2023-05-25T10:14:42;18.00;1.00
5980;DHT22;3016;50.308;8.258;2023-05-25T10:17:51;18.10;1.00
5980;DHT22;3016;50.308;8.258;2023-05-25T10:21:00;18.40;1.00
5980;DHT22;3016;50.308;8.258;2023-05-25T10:24:07;18.60;1.00
5980;DHT22;3016;50.308;8.258;2023-05-25T10:27:17;18.60;1.00
5980;DHT22;3016;50.308;8.258;2023-05-25T10:30:31;18.70;1.00
5980;DHT22;3016;50.308;8.258;2023-05-25T10:33:36;19.30;1.00
5980;DHT22;3016;50.308;8.258;2023-05-25T10:36:37;19.30;1.00
5980;DHT22;3016;50.308;8.258;2023-05-25T10:39:38;19.10;1.00
5980;DHT22;3016;50.308;8.258;2023-05-25T10:42:40;19.00;1.00
5980;DHT22;3016;50.308;8.258;2023-05-25T10:45:41;19.30;1.00
5980;DHT22;3016;50.308;8.258;2023-05-25T10:48:46;19.30;1.00
5980;DHT22;3016;50.308;8.258;2023-05-25T10:51:57;19.30;1.00
5980;DHT22;3016;50.308;8.258;2023-05-25T10:55:01;19.30;1.00
5980;DHT22;3016;50.308;8.258;2023-05-25T10:58:14;19.20;1.00
5980;DHT22;3016;50.308;8.258;2023-05-25T11:01:16;18.90;1.00
5980;DHT22;3016;50.308;8.258;2023-05-25T11:04:20;18.30;1.00
5980;DHT22;3016;50.308;8.258;2023-05-25T11:07:22;18.30;1.00
5980;DHT22;3016;50.308;8.258;2023-05-25T11:13:49;18.30;1.00
5980;DHT22;3016;50.308;8.258;2023-05-25T11:17:11;18.30;1.00
5980;DHT22;3016;50.308;8.258;2023-05-25T11:23:29;18.40;1.00
5980;DHT22;3016;50.308;8.258;2023-05-25T11:26:39;18.70;1.00
5980;DHT22;3016;50.308;8.258;2023-05-25T11:33:31;19.00;1.00
5980;DHT22;3016;50.308;8.258;2023-05-25T11:36:34;18.90;1.00
5980;DHT22;3016;50.308;8.258;2023-05-25T11:39:36;18.90;1.00
5980;DHT22;3016;50.308;8.258;2023-05-25T11:42:39;18.90;1.00
5980;DHT22;3016;50.308;8.258;2023-05-25T11:45:41;19.20;1.00
5980;DHT22;3016;50.308;8.258;2023-05-25T11:48:45;19.10;1.00
5980;DHT22;3016;50.308;8.258;2023-05-25T11:51:56;19.10;1.00
5980;DHT22;3016;50.308;8.258;2023-05-25T11:54:58;19.00;1.00
5980;DHT22;3016;50.308;8.258;2023-05-25T11:57:59;19.10;1.00
5980;DHT22;3016;50.308;8.258;2023-05-25T12:04:26;19.20;1.00
5980;DHT22;3016;50.308;8.258;2023-05-25T12:07:30;19.30;1.00
5980;DHT22;3016;50.308;8.258;2023-05-25T12:10:48;19.30;1.00
5980;DHT22;3016;50.308;8.258;2023-05-25T12:13:51;19.30;1.00
5980;DHT22;3016;50.308;8.258;2023-05-25T12:16:53;19.50;1.00
5980;DHT22;3016;50.308;8.258;2023-05-25T12:19:55;19.30;1.00
5980;DHT22;3016;50.308;8.258;2023-05-25T12:22:56;19.40;1.00
5980;DHT22;3016;50.308;8.258;2023-05-25T12:26:12;19.60;1.00
5980;DHT22;3016;50.308;8.258;2023-05-25T12:29:14;19.80;1.00
5980;DHT22;3016;50.308;8.258;2023-05-25T12:32:18;20.00;1.00
5980;DHT22;3016;50.308;8.258;2023-05-25T12:35:19;20.20;1.00
5980;DHT22;3016;50.308;8.258;2023-05-25T12:38:20;20.40;1.00
5980;DHT22;3016;50.308;8.258;2023-05-25T12:41:22;20.40;1.00
5980;DHT22;3016;50.308;8.258;2023-05-25T12:44:31;20.30;1.00
5980;DHT22;3016;50.308;8.258;2023-05-25T12:47:32;20.40;1.00
5980;DHT22;3016;50.308;8.258;2023-05-25T12:50:33;20.60;1.00
5980;DHT22;3016;50.308;8.258;2023-05-25T12:53:49;20.60;1.00
5980;DHT22;3016;50.308;8.258;2023-05-25T12:56:56;20.40;1.00
5980;DHT22;3016;50.308;8.258;2023-05-25T12:59:57;20.50;1.00
5980;DHT22;3016;50.308;8.258;2023-05-25T13:03:00;20.60;1.00
5980;DHT22;3016;50.308;8.258;2023-05-25T13:06:02;20.60;1.00
5980;DHT22;3016;50.308;8.258;2023-05-25T13:09:04;20.40;1.00
5980;DHT22;3016;50.308;8.258;2023-05-25T13:12:05;20.20;1.00
5980;DHT22;3016;50.308;8.258;2023-05-25T13:15:06;20.30;1.00
5980;DHT22;3016;50.308;8.258;2023-05-25T13:18:14;20.50;1.00
5980;DHT22;3016;50.308;8.258;2023-05-25T13:21:14;20.60;1.00
5980;DHT22;3016;50.308;8.258;2023-05-25T13:24:16;20.60;1.00
5980;DHT22;3016;50.308;8.258;2023-05-25T13:27:18;20.80;1.00
5980;DHT22;3016;50.308;8.258;2023-05-25T13:30:19;20.80;1.00
5980;DHT22;3016;50.308;8.258;2023-05-25T13:33:24;20.80;1.00
5980;DHT22;3016;50.308;8.258;2023-05-25T13:36:25;20.90;1.00
5980;DHT22;3016;50.308;8.258;2023-05-25T13:39:28;21.00;1.00
5980;DHT22;3016;50.308;8.258;2023-05-25T13:42:29;21.10;1.00
5980;DHT22;3016;50.308;8.258;2023-05-25T13:45:32;21.20;1.00
5980;DHT22;3016;50.308;8.258;2023-05-25T13:48:34;21.20;1.00
5980;DHT22;3016;50.308;8.258;2023-05-25T13:51:35;21.20;1.00
5980;DHT22;3016;50.308;8.258;2023-05-25T13:57:48;21.10;1.00
5980;DHT22;3016;50.308;8.258;2023-05-25T14:00:49;21.10;1.00
5980;DHT22;3016;50.308;8.258;2023-05-25T14:03:50;21.20;1.00
5980;DHT22;3016;50.308;8.258;2023-05-25T14:06:51;21.30;1.00
5980;DHT22;3016;50.308;8.258;2023-05-25T14:09:52;21.30;1.00
5980;DHT22;3016;50.308;8.258;2023-05-25T14:12:52;21.50;1.00
5980;DHT22;3016;50.308;8.258;2023-05-25T14:15:53;21.60;1.00
5980;DHT22;3016;50.308;8.258;2023-05-25T14:18:55;21.70;1.00
5980;DHT22;3016;50.308;8.258;2023-05-25T14:21:56;21.70;1.00
5980;DHT22;3016;50.308;8.258;2023-05-25T14:24:56;21.70;1.00
5980;DHT22;3016;50.308;8.258;2023-05-25T14:27:57;21.70;1.00
5980;DHT22;3016;50.308;8.258;2023-05-25T14:30:58;21.80;1.00
5980;DHT22;3016;50.308;8.258;2023-05-25T14:33:59;21.70;1.00
5980;DHT22;3016;50.308;8.258;2023-05-25T14:37:00;21.70;1.00
5980;DHT22;3016;50.308;8.258;2023-05-25T14:55:55;21.60;1.00
5980;DHT22;3016;50.308;8.258;2023-05-25T15:34:46;21.50;1.00
5980;DHT22;3016;50.308;8.258;2023-05-25T16:45:03;21.70;1.00
5980;DHT22;3016;50.308;8.258;2023-05-25T21:02:27;13.80;1.00
